Time,TemperatureF,DewpointF,PressureIn,WindDirection,WindDirectionDegrees,WindSpeedMPH,WindSpeedGustMPH,Humidity,HourlyPrecipIn,Conditions,Clouds,dailyrainin,SolarRadiationWatts/m^2,SoftwareType,DateUTC
2013-03-28 00:01:00,55.1,52.2,30.00,WSW,248,4.5,6.0,90,0.00,OVC,,0.00,0.0,WeatherDisplay:10.37,2013-03-28 07:01:00,
2013-03-28 00:06:00,55.1,52.2,30.00,SW,227,3.8,5.8,90,0.00,OVC,,0.00,0.0,WeatherDisplay:10.37,2013-03-28 07:06:00,
2013-03-28 00:11:00,55.0,52.1,30.00,SSW,202,3.2,3.5,90,0.00,OVC,,0.00,0.0,WeatherDisplay:10.37,2013-03-28 07:11:00,
2013-03-28 00:16:00,55.0,52.4,30.00,SW,231,1.8,4.0,91,0.00,OVC,,0.00,0.0,WeatherDisplay:10.37,2013-03-28 07:16:00,
2013-03-28 00:21:00,54.9,52.3,30.00,SSW,203,2.1,3.5,91,0.00,OVC,,0.00,0.0,WeatherDisplay:10.37,2013-03-28 07:21:00,
2013-03-28 00:26:00,55.0,52.4,30.00,SSW,196,3.8,6.9,91,0.00,OVC,,0.00,0.0,WeatherDisplay:10.37,2013-03-28 07:26:00,
2013-03-28 00:31:00,55.0,52.4,30.00,SSW,200,4.5,6.9,91,0.00,OVC,,0.00,0.0,WeatherDisplay:10.37,2013-03-28 07:31:00,
2013-03-28 00:36:00,55.0,52.4,30.00,SSW,205,4.7,6.9,91,0.00,OVC,,0.00,0.0,WeatherDisplay:10.37,2013-03-28 07:36:00,
2013-03-28 00:41:00,55.0,52.4,30.00,SW,224,3.3,4.6,91,0.00,OVC,,0.00,0.0,WeatherDisplay:10.37,2013-03-28 07:41:00,
2013-03-28 00:46:00,55.0,52.4,30.00,SW,233,5.4,8.1,91,0.00,OVC,,0.00,0.0,WeatherDisplay:10.37,2013-03-28 07:46:00,
2013-03-28 00:51:00,55.0,52.4,30.00,SW,222,3.3,4.6,91,0.00,OVC,,0.00,0.0,WeatherDisplay:10.37,2013-03-28 07:51:00,
2013-03-28 00:56:00,55.0,52.4,30.00,SSW,213,1.5,2.3,91,0.00,OVC,,0.00,0.0,WeatherDisplay:10.37,2013-03-28 07:56:00,
2013-03-28 01:01:00,54.9,52.3,30.00,SSW,213,0.0,3.5,91,0.00,OVC,,0.00,0.0,WeatherDisplay:10.37,2013-03-28 08:01:00,
2013-03-28 01:06:00,54.9,52.3,30.00,SSW,213,0.1,1.2,91,0.00,OVC,,0.00,0.0,WeatherDisplay:10.37,2013-03-28 08:06:00,
2013-03-28 01:11:00,54.9,52.3,30.00,SW,214,0.0,2.3,91,0.00,OVC,,0.00,0.0,WeatherDisplay:10.37,2013-03-28 08:11:00,
2013-03-28 01:16:00,54.9,52.3,30.00,SSW,213,2.9,3.5,91,0.00,OVC,,0.00,0.0,WeatherDisplay:10.37,2013-03-28 08:16:00,
2013-03-28 01:21:00,54.9,52.3,30.00,SW,214,1.3,3.5,91,0.00,OVC,,0.00,0.0,WeatherDisplay:10.37,2013-03-28 08:21:00,
2013-03-28 01:26:00,54.8,52.2,30.00,SSW,199,3.3,3.5,91,0.00,OVC,,0.00,0.0,WeatherDisplay:10.37,2013-03-28 08:26:00,
2013-03-28 01:31:00,54.9,52.3,30.00,SW,216,4.1,5.0,91,0.00,OVC,,0.00,0.0,WeatherDisplay:10.37,2013-03-28 08:31:00,
2013-03-28 01:36:00,54.9,52.3,30.00,SW,219,0.3,4.6,91,0.00,OVC,,0.00,0.0,WeatherDisplay:10.37,2013-03-28 08:36:00,
2013-03-28 01:42:00,54.9,52.3,30.00,WSW,239,4.1,5.8,91,0.00,OVC,,0.00,0.0,WeatherDisplay:10.37,2013-03-28 08:42:00,
2013-03-28 01:47:00,54.9,52.3,30.00,SW,223,0.9,4.6,91,0.00,OVC,,0.00,0.0,WeatherDisplay:10.37,2013-03-28 08:47:00,
2013-03-28 01:52:00,54.9,52.3,30.00,SW,223,1.4,2.3,91,0.00,OVC,,0.00,0.0,WeatherDisplay:10.37,2013-03-28 08:52:00,
2013-03-28 01:57:00,54.9,52.3,30.00,SW,226,3.2,8.1,91,0.00,OVC,,0.00,0.0,WeatherDisplay:10.37,2013-03-28 08:57:00,
2013-03-28 02:02:00,55.0,52.4,30.00,SSW,210,1.7,4.6,91,0.00,OVC,,0.00,0.0,WeatherDisplay:10.37,2013-03-28 09:02:00,
2013-03-28 02:07:00,55.0,52.4,30.00,SW,216,2.5,4.6,91,0.00,OVC,,0.00,0.0,WeatherDisplay:10.37,2013-03-28 09:07:00,
2013-03-28 02:12:00,55.1,52.5,30.00,SW,216,3.4,4.6,91,0.00,OVC,,0.00,0.0,WeatherDisplay:10.37,2013-03-28 09:12:00,
2013-03-28 02:17:00,55.1,52.5,30.00,SW,221,4.3,5.8,91,0.00,OVC,,0.00,0.0,WeatherDisplay:10.37,2013-03-28 09:17:00,
2013-03-28 02:22:00,55.1,52.5,30.00,SW,221,2.9,4.6,91,0.00,OVC,,0.00,0.0,WeatherDisplay:10.37,2013-03-28 09:22:00,
2013-03-28 02:27:00,55.1,52.5,30.00,SSW,209,0.4,4.0,91,0.00,OVC,,0.00,0.0,WeatherDisplay:10.37,2013-03-28 09:27:00,
2013-03-28 02:32:00,55.1,52.5,30.00,SW,225,1.0,6.9,91,0.00,OVC,,0.00,0.0,WeatherDisplay:10.37,2013-03-28 09:32:00,
2013-03-28 02:37:00,55.2,52.6,30.00,SW,224,1.5,4.6,91,0.00,OVC,,0.00,0.0,WeatherDisplay:10.37,2013-03-28 09:37:00,
2013-03-28 02:42:00,55.2,52.6,30.00,SW,223,2.5,6.0,91,0.00,OVC,,0.00,0.0,WeatherDisplay:10.37,2013-03-28 09:42:00,
2013-03-28 02:47:00,55.2,52.6,30.00,SW,214,3.2,5.8,91,0.00,OVC,,0.00,0.0,WeatherDisplay:10.37,2013-03-28 09:47:00,
2013-03-28 02:52:00,55.2,52.6,30.00,SSW,208,2.6,4.6,91,0.00,OVC,,0.00,0.0,WeatherDisplay:10.37,2013-03-28 09:52:00,
2013-03-28 02:57:00,55.2,52.6,30.00,SSW,208,2.1,4.6,91,0.00,OVC,,0.00,0.0,WeatherDisplay:10.37,2013-03-28 09:57:00,
2013-03-28 03:02:00,55.2,52.6,29.99,SSW,201,4.5,6.0,91,0.00,OVC,,0.00,0.0,WeatherDisplay:10.37,2013-03-28 10:02:00,
2013-03-28 03:07:00,55.1,52.5,29.99,SSW,206,4.3,5.8,91,0.00,OVC,,0.00,0.0,WeatherDisplay:10.37,2013-03-28 10:07:00,
2013-03-28 03:12:00,55.1,52.5,29.99,SSW,199,3.9,4.6,91,0.00,OVC,,0.00,0.0,WeatherDisplay:10.37,2013-03-28 10:12:00,
2013-03-28 03:17:00,55.0,52.4,29.99,South,190,5.2,6.9,91,0.00,OVC,,0.00,0.0,WeatherDisplay:10.37,2013-03-28 10:17:00,
2013-03-28 03:22:00,54.9,52.3,29.99,South,190,2.3,3.5,91,0.00,OVC,,0.00,0.0,WeatherDisplay:10.37,2013-03-28 10:22:00,
2013-03-28 03:27:00,54.8,52.2,29.99,South,190,0.0,0.0,91,0.00,OVC,,0.00,0.0,WeatherDisplay:10.37,2013-03-28 10:27:00,
2013-03-28 03:32:00,54.8,52.2,29.99,South,190,0.0,0.0,91,0.00,OVC,,0.00,0.0,WeatherDisplay:10.37,2013-03-28 10:32:00,
2013-03-28 03:37:00,54.7,52.1,29.99,South,190,0.0,0.0,91,0.00,OVC,,0.00,0.0,WeatherDisplay:10.37,2013-03-28 10:37:00,
2013-03-28 03:42:00,54.6,52.0,29.99,South,190,0.0,0.0,91,0.00,OVC,,0.00,0.0,WeatherDisplay:10.37,2013-03-28 10:42:00,
2013-03-28 03:47:00,54.6,52.0,29.99,South,190,0.0,0.0,91,0.00,OVC,,0.00,0.0,WeatherDisplay:10.37,2013-03-28 10:47:00,
2013-03-28 03:53:00,54.6,52.3,29.99,South,190,0.0,0.0,92,0.00,OVC,,0.00,0.0,WeatherDisplay:10.37,2013-03-28 10:53:00,
2013-03-28 03:58:00,54.6,52.3,29.99,South,190,0.0,0.0,92,0.00,OVC,,0.00,0.0,WeatherDisplay:10.37,2013-03-28 10:58:00,
2013-03-28 04:03:00,54.7,52.4,29.99,South,190,0.0,0.0,92,0.00,OVC,,0.00,0.0,WeatherDisplay:10.37,2013-03-28 11:03:00,
2013-03-28 04:08:00,54.7,52.4,29.99,South,190,0.0,0.0,92,0.00,OVC,,0.00,0.0,WeatherDisplay:10.37,2013-03-28 11:08:00,
2013-03-28 04:13:00,54.7,52.4,29.99,South,190,0.0,0.0,92,0.00,OVC,,0.00,0.0,WeatherDisplay:10.37,2013-03-28 11:13:00,
2013-03-28 04:18:00,54.8,52.2,29.99,South,190,0.0,0.0,91,0.00,OVC,,0.00,0.0,WeatherDisplay:10.37,2013-03-28 11:18:00,
2013-03-28 04:23:00,54.8,52.2,29.99,South,190,0.0,0.0,91,0.00,OVC,,0.00,0.0,WeatherDisplay:10.37,2013-03-28 11:23:00,
2013-03-28 04:28:00,54.8,52.2,29.98,South,190,0.0,0.0,91,0.00,OVC,,0.00,0.0,WeatherDisplay:10.37,2013-03-28 11:28:00,
2013-03-28 04:33:00,54.8,52.2,29.99,South,190,0.0,0.0,91,0.00,OVC,,0.00,0.0,WeatherDisplay:10.37,2013-03-28 11:33:00,
2013-03-28 04:38:00,54.9,52.3,29.99,South,190,0.0,0.0,91,0.00,OVC,,0.00,0.0,WeatherDisplay:10.37,2013-03-28 11:38:00,
2013-03-28 04:43:00,54.9,52.3,29.99,SSW,205,0.0,0.0,91,0.00,OVC,,0.00,0.0,WeatherDisplay:10.37,2013-03-28 11:43:00,
2013-03-28 04:48:00,54.9,52.3,29.99,SSW,205,0.0,0.0,91,0.00,OVC,,0.00,0.0,WeatherDisplay:10.37,2013-03-28 11:48:00,
2013-03-28 04:53:00,55.0,52.4,30.00,SSW,205,0.0,0.0,91,0.00,OVC,,0.00,0.0,WeatherDisplay:10.37,2013-03-28 11:53:00,
2013-03-28 04:58:00,55.0,52.4,29.99,SSW,205,0.0,0.0,91,0.00,OVC,,0.00,0.0,WeatherDisplay:10.37,2013-03-28 11:58:00,
2013-03-28 05:03:00,55.0,52.4,30.00,SSW,205,0.0,0.0,91,0.00,OVC,,0.00,0.0,WeatherDisplay:10.37,2013-03-28 12:03:00,
2013-03-28 05:08:00,55.0,52.4,29.99,SSW,205,0.0,0.0,91,0.00,OVC,,0.00,0.0,WeatherDisplay:10.37,2013-03-28 12:08:00,
2013-03-28 05:13:00,55.0,52.4,30.00,SSW,205,0.0,0.0,91,0.00,OVC,,0.00,0.0,WeatherDisplay:10.37,2013-03-28 12:13:00,
2013-03-28 05:18:00,54.9,52.3,30.00,SSW,205,0.0,0.0,91,0.00,OVC,,0.00,0.0,WeatherDisplay:10.37,2013-03-28 12:18:00,
2013-03-28 05:23:00,54.9,52.3,30.00,SSW,205,0.0,0.0,91,0.00,OVC,,0.00,0.0,WeatherDisplay:10.37,2013-03-28 12:23:00,
2013-03-28 05:28:00,54.9,52.3,30.00,SSW,205,0.0,0.0,91,0.00,OVC,,0.00,0.0,WeatherDisplay:10.37,2013-03-28 12:28:00,
2013-03-28 05:33:00,54.9,52.3,29.99,SSW,205,0.0,0.0,91,0.00,OVC,,0.00,0.0,WeatherDisplay:10.37,2013-03-28 12:33:00,
2013-03-28 05:38:00,54.9,52.3,30.00,SSW,205,0.0,0.0,91,0.00,OVC,,0.00,0.0,WeatherDisplay:10.37,2013-03-28 12:38:00,
2013-03-28 05:43:00,54.8,52.2,30.00,SSW,205,0.0,0.0,91,0.00,OVC,,0.00,0.0,WeatherDisplay:10.37,2013-03-28 12:43:00,
2013-03-28 05:48:00,54.8,52.2,30.00,SSW,213,0.0,0.0,91,0.00,OVC,,0.00,0.0,WeatherDisplay:10.37,2013-03-28 12:48:00,
2013-03-28 05:53:00,54.7,52.1,30.00,SW,214,0.1,0.0,91,0.00,OVC,,0.00,0.0,WeatherDisplay:10.37,2013-03-28 12:53:00,
2013-03-28 05:58:00,54.6,52.0,30.00,SSW,213,0.0,3.5,91,0.00,OVC,,0.00,0.0,WeatherDisplay:10.37,2013-03-28 12:58:00,
2013-03-28 06:03:00,54.6,52.0,30.00,SW,214,1.3,3.5,91,0.00,OVC,,0.00,0.0,WeatherDisplay:10.37,2013-03-28 13:03:00,
2013-03-28 06:08:00,54.5,51.9,30.00,SW,214,0.0,1.2,91,0.00,OVC,,0.00,0.0,WeatherDisplay:10.37,2013-03-28 13:08:00,
2013-03-28 06:13:00,54.5,51.9,30.00,SW,214,0.1,1.2,91,0.00,OVC,,0.00,0.0,WeatherDisplay:10.37,2013-03-28 13:13:00,
2013-03-28 06:18:00,54.4,51.8,30.00,SW,215,1.6,3.5,91,0.00,OVC,,0.00,0.0,WeatherDisplay:10.37,2013-03-28 13:18:00,
2013-03-28 06:23:00,54.3,52.0,30.00,SW,214,0.0,0.0,92,0.00,OVC,,0.00,0.0,WeatherDisplay:10.37,2013-03-28 13:23:00,
2013-03-28 06:28:00,54.3,52.0,30.00,SSW,213,0.0,2.3,92,0.00,OVC,,0.00,0.0,WeatherDisplay:10.37,2013-03-28 13:28:00,
2013-03-28 06:33:00,54.3,52.0,30.00,SW,214,0.0,0.0,92,0.00,OVC,,0.00,0.0,WeatherDisplay:10.37,2013-03-28 13:33:00,
2013-03-28 06:38:00,54.3,52.0,30.00,SW,214,0.0,0.0,92,0.00,OVC,,0.00,0.0,WeatherDisplay:10.37,2013-03-28 13:38:00,
2013-03-28 06:43:00,54.3,52.0,30.00,SW,214,0.0,0.0,92,0.00,OVC,,0.00,0.0,WeatherDisplay:10.37,2013-03-28 13:43:00,
2013-03-28 06:48:00,54.4,52.1,30.00,SSW,213,1.7,2.0,92,0.00,OVC,,0.00,0.0,WeatherDisplay:10.37,2013-03-28 13:48:00,
2013-03-28 06:53:00,54.4,52.1,30.00,SW,214,2.4,3.5,92,0.00,OVC,,0.00,0.0,WeatherDisplay:10.37,2013-03-28 13:53:00,
2013-03-28 06:58:00,54.5,52.2,30.00,SW,214,0.8,1.0,92,0.00,OVC,,0.00,0.0,WeatherDisplay:10.37,2013-03-28 13:58:00,
2013-03-28 07:03:00,54.5,52.2,30.00,SW,214,0.4,2.3,92,0.00,OVC,,0.00,0.0,WeatherDisplay:10.37,2013-03-28 14:03:00,
2013-03-28 07:09:00,54.6,52.3,30.00,SSW,213,0.0,1.2,92,0.00,OVC,,0.00,0.0,WeatherDisplay:10.37,2013-03-28 14:09:00,
2013-03-28 07:14:00,54.6,52.3,30.01,SSW,213,0.0,0.0,92,0.00,OVC,,0.00,0.0,WeatherDisplay:10.37,2013-03-28 14:14:00,
2013-03-28 07:19:00,54.7,52.4,30.01,SW,214,0.9,3.5,92,0.00,OVC,,0.00,5.0,WeatherDisplay:10.37,2013-03-28 14:19:00,
2013-03-28 07:24:00,54.8,52.5,30.01,SW,214,1.2,3.5,92,0.00,OVC,,0.00,9.0,WeatherDisplay:10.37,2013-03-28 14:24:00,
2013-03-28 07:29:00,54.9,52.6,30.02,SSW,213,1.4,3.5,92,0.00,OVC,,0.00,9.0,WeatherDisplay:10.37,2013-03-28 14:29:00,
2013-03-28 07:34:00,55.0,52.7,30.02,SW,214,0.6,2.3,92,0.00,BKN,,0.00,12.0,WeatherDisplay:10.37,2013-03-28 14:34:00,
2013-03-28 07:39:00,55.1,52.8,30.02,SW,214,0.3,2.3,92,0.00,BKN,,0.00,16.0,WeatherDisplay:10.37,2013-03-28 14:39:00,
2013-03-28 07:44:00,55.2,52.9,30.03,SSW,213,1.5,3.5,92,0.00,BKN,,0.00,23.0,WeatherDisplay:10.37,2013-03-28 14:44:00,
2013-03-28 07:49:00,55.3,53.0,30.03,SW,214,0.3,3.5,92,0.00,BKN,,0.00,33.0,WeatherDisplay:10.37,2013-03-28 14:49:00,
2013-03-28 07:54:00,55.3,53.0,30.03,SSW,213,2.3,3.5,92,0.00,BKN,,0.00,40.0,WeatherDisplay:10.37,2013-03-28 14:54:00,
2013-03-28 07:59:00,55.4,53.1,30.03,SW,217,3.4,4.6,92,0.00,BKN,,0.00,37.0,WeatherDisplay:10.37,2013-03-28 14:59:00,
2013-03-28 08:04:00,55.5,53.2,30.03,SW,217,3.0,5.0,92,0.00,BKN,,0.00,28.0,WeatherDisplay:10.37,2013-03-28 15:04:00,
2013-03-28 08:09:00,55.6,53.3,30.04,SW,215,4.9,6.9,92,0.00,BKN,,0.00,40.0,WeatherDisplay:10.37,2013-03-28 15:09:00,
2013-03-28 08:14:00,55.6,53.3,30.04,SSW,211,2.4,4.0,92,0.00,BKN,,0.00,69.0,WeatherDisplay:10.37,2013-03-28 15:14:00,
2013-03-28 08:19:00,55.7,53.4,30.04,SW,219,2.8,4.6,92,0.00,BKN,,0.00,77.0,WeatherDisplay:10.37,2013-03-28 15:19:00,
2013-03-28 08:24:00,55.7,53.4,30.04,SW,217,3.6,5.8,92,0.00,BKN,,0.00,102.0,WeatherDisplay:10.37,2013-03-28 15:24:00,
2013-03-28 08:29:00,55.9,53.6,30.04,SW,221,5.4,10.4,92,0.00,BKN,,0.00,88.0,WeatherDisplay:10.37,2013-03-28 15:29:00,
2013-03-28 08:34:00,55.9,53.6,30.04,SSW,202,2.0,3.5,92,0.00,BKN,,0.00,114.0,WeatherDisplay:10.37,2013-03-28 15:34:00,
2013-03-28 08:39:00,56.1,53.8,30.04,SW,218,4.8,9.2,92,0.00,BKN,,0.00,107.0,WeatherDisplay:10.37,2013-03-28 15:39:00,
2013-03-28 08:44:00,56.1,53.8,30.04,SW,232,4.3,5.8,92,0.00,BKN,,0.00,104.0,WeatherDisplay:10.37,2013-03-28 15:44:00,
2013-03-28 08:49:00,56.2,53.6,30.05,WSW,243,5.6,6.9,91,0.00,BKN,,0.00,90.0,WeatherDisplay:10.37,2013-03-28 15:49:00,
2013-03-28 08:54:00,56.2,53.6,30.05,SSW,209,0.5,3.5,91,0.00,BKN,,0.00,77.0,WeatherDisplay:10.37,2013-03-28 15:54:00,
2013-03-28 08:59:00,56.2,53.3,30.05,SW,224,0.2,3.5,90,0.00,BKN,,0.00,97.0,WeatherDisplay:10.37,2013-03-28 15:59:00,
2013-03-28 09:04:00,56.3,53.4,30.05,WNW,288,2.9,5.0,90,0.00,BKN,,0.00,160.0,WeatherDisplay:10.37,2013-03-28 16:04:00,
2013-03-28 09:09:00,56.2,53.3,30.05,SW,214,4.8,9.2,90,0.00,BKN,,0.00,251.0,WeatherDisplay:10.37,2013-03-28 16:09:00,
2013-03-28 09:14:00,56.3,53.4,30.05,SW,229,6.2,11.5,90,0.00,SCT,,0.00,223.0,WeatherDisplay:10.37,2013-03-28 16:14:00,
2013-03-28 09:19:00,56.3,53.1,30.05,SW,236,3.4,6.9,89,0.00,SCT,,0.00,265.0,WeatherDisplay:10.37,2013-03-28 16:19:00,
2013-03-28 09:24:00,56.4,53.2,30.05,WSW,252,4.6,6.9,89,0.00,SCT,,0.00,260.0,WeatherDisplay:10.37,2013-03-28 16:24:00,
2013-03-28 09:29:00,56.6,53.4,30.05,WSW,250,5.2,9.2,89,0.00,SCT,,0.00,243.0,WeatherDisplay:10.37,2013-03-28 16:29:00,
2013-03-28 09:34:00,56.7,53.2,30.05,SW,233,4.2,5.8,88,0.00,SCT,,0.00,234.0,WeatherDisplay:10.37,2013-03-28 16:34:00,
2013-03-28 09:39:00,56.7,53.2,30.05,WSW,254,5.3,9.2,88,0.00,BKN,,0.00,216.0,WeatherDisplay:10.37,2013-03-28 16:39:00,
2013-03-28 09:44:00,57.0,53.5,30.05,WSW,248,3.4,4.6,88,0.00,BKN,,0.00,232.0,WeatherDisplay:10.37,2013-03-28 16:44:00,
2013-03-28 09:49:00,57.2,53.4,30.05,SW,217,5.1,6.9,87,0.00,BKN,,0.00,237.0,WeatherDisplay:10.37,2013-03-28 16:49:00,
2013-03-28 09:54:00,57.3,53.1,30.05,WSW,251,1.9,4.6,86,0.00,BKN,,0.00,221.0,WeatherDisplay:10.37,2013-03-28 16:54:00,
2013-03-28 09:59:00,57.6,53.4,30.05,WSW,246,2.3,3.5,86,0.00,BKN,,0.00,239.0,WeatherDisplay:10.37,2013-03-28 16:59:00,
2013-03-28 10:04:00,57.8,53.6,30.05,WSW,245,0.4,1.2,86,0.00,BKN,,0.00,253.0,WeatherDisplay:10.37,2013-03-28 17:04:00,
2013-03-28 10:09:00,58.1,53.9,30.05,WSW,246,1.3,3.5,86,0.00,BKN,,0.00,244.0,WeatherDisplay:10.37,2013-03-28 17:09:00,
2013-03-28 10:14:00,58.3,53.8,30.05,WSW,248,0.0,0.0,85,0.00,BKN,,0.00,302.0,WeatherDisplay:10.37,2013-03-28 17:14:00,
2013-03-28 10:19:00,58.5,54.0,30.05,WSW,247,1.2,3.5,85,0.00,BKN,,0.00,246.0,WeatherDisplay:10.37,2013-03-28 17:19:00,
2013-03-28 10:24:00,58.6,53.8,30.05,WSW,247,0.0,1.2,84,0.00,BKN,,0.00,225.0,WeatherDisplay:10.37,2013-03-28 17:24:00,
2013-03-28 10:29:00,58.8,54.0,30.05,WSW,248,0.6,2.3,84,0.00,BKN,,0.00,248.0,WeatherDisplay:10.37,2013-03-28 17:29:00,
2013-03-28 10:34:00,59.1,54.3,30.05,WSW,258,1.0,3.5,84,0.00,BKN,,0.00,274.0,WeatherDisplay:10.37,2013-03-28 17:34:00,
2013-03-28 10:39:00,59.1,53.6,30.05,WSW,258,1.3,3.5,82,0.00,BKN,,0.00,329.0,WeatherDisplay:10.37,2013-03-28 17:39:00,
2013-03-28 10:44:00,59.4,54.2,30.05,WSW,258,0.8,3.5,83,0.00,BKN,,0.00,297.0,WeatherDisplay:10.37,2013-03-28 17:44:00,
2013-03-28 10:49:00,59.7,53.9,30.05,SE,131,1.8,4.6,81,0.00,BKN,,0.00,322.0,WeatherDisplay:10.37,2013-03-28 17:49:00,
2013-03-28 10:54:00,60.0,53.8,30.05,SE,131,2.8,3.5,80,0.00,BKN,,0.00,323.0,WeatherDisplay:10.37,2013-03-28 17:54:00,
2013-03-28 10:59:00,60.2,54.0,30.05,East,89,3.9,7.0,80,0.00,BKN,,0.00,339.0,WeatherDisplay:10.37,2013-03-28 17:59:00,
2013-03-28 11:04:00,60.2,54.0,30.05,SE,137,3.9,5.0,80,0.00,BKN,,0.00,436.0,WeatherDisplay:10.37,2013-03-28 18:04:00,
2013-03-28 11:09:00,60.3,54.1,30.05,SE,137,3.2,4.6,80,0.00,SCT,,0.00,469.0,WeatherDisplay:10.37,2013-03-28 18:09:00,
2013-03-28 11:14:00,60.4,53.9,30.05,ENE,73,4.2,6.9,79,0.00,SCT,,0.00,468.0,WeatherDisplay:10.37,2013-03-28 18:14:00,
2013-03-28 11:19:00,59.9,53.7,30.05,East,81,4.7,6.9,80,0.00,SCT,,0.00,555.0,WeatherDisplay:10.37,2013-03-28 18:19:00,
2013-03-28 11:24:00,59.9,54.1,30.05,East,79,0.0,0.0,81,0.00,SCT,,0.00,617.0,WeatherDisplay:10.37,2013-03-28 18:24:00,
2013-03-28 11:29:00,60.5,54.3,30.05,ESE,116,0.0,0.0,80,0.00,FEW,,0.00,795.0,WeatherDisplay:10.37,2013-03-28 18:29:00,
2013-03-28 11:34:00,61.4,54.8,30.05,SE,133,1.8,2.3,79,0.00,CLR,,0.00,784.0,WeatherDisplay:10.37,2013-03-28 18:34:00,
2013-03-28 11:39:00,62.1,54.1,30.05,SE,133,0.4,3.5,75,0.00,CLR,,0.00,487.0,WeatherDisplay:10.37,2013-03-28 18:39:00,
2013-03-28 11:44:00,62.5,54.1,30.05,SSW,194,0.6,4.0,74,0.00,SCT,,0.00,550.0,WeatherDisplay:10.37,2013-03-28 18:44:00,
2013-03-28 11:49:00,63.1,53.9,30.05,SE,131,3.6,5.8,72,0.00,SCT,,0.00,506.0,WeatherDisplay:10.37,2013-03-28 18:49:00,
2013-03-28 11:54:00,63.5,53.9,30.05,SE,145,3.3,4.6,71,0.00,SCT,,0.00,589.0,WeatherDisplay:10.37,2013-03-28 18:54:00,
2013-03-28 11:59:00,63.8,54.2,30.05,SE,138,0.9,3.5,71,0.00,SCT,,0.00,733.0,WeatherDisplay:10.37,2013-03-28 18:59:00,
2013-03-28 12:04:00,64.3,53.9,30.05,SE,138,2.9,5.8,69,0.00,SCT,,0.00,461.0,WeatherDisplay:10.37,2013-03-28 19:04:00,
2013-03-28 12:09:00,64.0,53.6,30.05,SE,131,2.0,9.2,69,0.00,SCT,,0.00,527.0,WeatherDisplay:10.37,2013-03-28 19:09:00,
2013-03-28 12:14:00,64.0,53.6,30.05,South,169,0.8,3.0,69,0.00,SCT,,0.00,522.0,WeatherDisplay:10.37,2013-03-28 19:14:00,
2013-03-28 12:19:00,64.2,53.8,30.05,SSE,157,1.1,3.0,69,0.00,SCT,,0.00,494.0,WeatherDisplay:10.37,2013-03-28 19:19:00,
2013-03-28 12:24:00,64.3,53.5,30.05,East,101,1.7,4.6,68,0.00,SCT,,0.00,621.0,WeatherDisplay:10.37,2013-03-28 19:24:00,
2013-03-28 12:29:00,64.6,53.8,30.05,SSE,157,0.2,3.5,68,0.00,SCT,,0.00,1125.0,WeatherDisplay:10.37,2013-03-28 19:29:00,
2013-03-28 12:34:00,65.4,54.2,30.05,SE,133,3.1,6.0,67,0.00,CLR,,0.00,1095.0,WeatherDisplay:10.37,2013-03-28 19:34:00,
2013-03-28 12:39:00,65.9,53.4,30.05,SE,129,0.2,4.0,64,0.00,CLR,,0.00,290.0,WeatherDisplay:10.37,2013-03-28 19:39:00,
2013-03-28 12:44:00,65.6,52.7,30.05,SE,134,2.0,6.0,63,0.00,SCT,,0.00,341.0,WeatherDisplay:10.37,2013-03-28 19:44:00,
2013-03-28 12:49:00,65.3,52.4,30.05,SE,127,4.0,5.8,63,0.00,BKN,,0.00,243.0,WeatherDisplay:10.37,2013-03-28 19:49:00,
2013-03-28 12:54:00,64.9,52.8,30.06,SE,127,2.1,3.0,65,0.00,BKN,,0.00,309.0,WeatherDisplay:10.37,2013-03-28 19:54:00,
2013-03-28 12:59:00,64.8,53.1,30.06,SSE,150,1.0,6.0,66,0.00,BKN,,0.00,466.0,WeatherDisplay:10.37,2013-03-28 19:59:00,
2013-03-28 13:04:00,64.0,54.4,30.06,WSW,248,1.4,5.0,71,0.00,BKN,,0.00,355.0,WeatherDisplay:10.37,2013-03-28 20:04:00,
2013-03-28 13:09:00,63.5,54.7,30.05,WNW,288,2.9,4.0,73,0.00,BKN,,0.00,427.0,WeatherDisplay:10.37,2013-03-28 20:09:00,
2013-03-28 13:14:00,62.9,54.1,30.05,West,280,2.0,5.0,73,0.00,SCT,,0.00,846.0,WeatherDisplay:10.37,2013-03-28 20:14:00,
2013-03-28 13:19:00,62.7,54.7,30.05,North,355,4.3,4.6,75,0.00,SCT,,0.00,281.0,WeatherDisplay:10.37,2013-03-28 20:19:00,
2013-03-28 13:24:00,62.7,54.7,30.05,NNW,333,2.0,4.0,75,0.00,SCT,,0.00,374.0,WeatherDisplay:10.37,2013-03-28 20:24:00,
2013-03-28 13:29:00,62.8,54.4,30.05,North,5,0.0,3.5,74,0.00,BKN,,0.00,360.0,WeatherDisplay:10.37,2013-03-28 20:29:00,
2013-03-28 13:34:00,62.9,54.1,30.05,North,353,1.0,4.0,73,0.00,BKN,,0.00,443.0,WeatherDisplay:10.37,2013-03-28 20:34:00,
2013-03-28 13:39:00,63.2,54.4,30.05,West,279,3.6,6.9,73,0.00,BKN,,0.00,457.0,WeatherDisplay:10.37,2013-03-28 20:39:00,
2013-03-28 13:44:00,63.4,54.2,30.05,WNW,283,1.0,7.0,72,0.00,SCT,,0.00,462.0,WeatherDisplay:10.37,2013-03-28 20:44:00,
2013-03-28 13:49:00,63.5,54.7,30.05,NNW,347,2.8,5.0,73,0.00,SCT,,0.00,334.0,WeatherDisplay:10.37,2013-03-28 20:49:00,
2013-03-28 13:54:00,63.8,55.0,30.04,NW,309,3.0,7.0,73,0.00,BKN,,0.00,318.0,WeatherDisplay:10.37,2013-03-28 20:54:00,
2013-03-28 13:59:00,63.8,54.6,30.05,WNW,286,6.4,9.2,72,0.00,BKN,,0.00,311.0,WeatherDisplay:10.37,2013-03-28 20:59:00,
2013-03-28 14:04:00,63.3,54.5,30.05,West,267,8.3,11.5,73,0.00,BKN,,0.00,367.0,WeatherDisplay:10.37,2013-03-28 21:04:00,
2013-03-28 14:09:00,62.9,54.1,30.05,WNW,282,7.2,11.5,73,0.00,BKN,,0.00,329.0,WeatherDisplay:10.37,2013-03-28 21:09:00,
2013-03-28 14:14:00,62.6,54.2,30.05,WSW,253,9.0,12.0,74,0.00,BKN,,0.00,313.0,WeatherDisplay:10.37,2013-03-28 21:14:00,
2013-03-28 14:19:00,62.4,54.0,30.05,WSW,254,6.0,12.0,74,0.00,BKN,,0.00,390.0,WeatherDisplay:10.37,2013-03-28 21:19:00,
2013-03-28 14:24:00,62.1,54.1,30.05,West,269,5.0,14.0,75,0.00,BKN,,0.00,427.0,WeatherDisplay:10.37,2013-03-28 21:24:00,
2013-03-28 14:29:00,61.6,53.6,30.05,West,280,7.0,12.0,75,0.00,SCT,,0.00,464.0,WeatherDisplay:10.37,2013-03-28 21:29:00,
2013-03-28 14:34:00,61.3,54.0,30.04,WNW,283,3.0,9.0,77,0.00,SCT,,0.00,541.0,WeatherDisplay:10.37,2013-03-28 21:34:00,
2013-03-28 14:39:00,61.3,54.0,30.04,West,279,7.0,10.0,77,0.00,SCT,,0.00,652.0,WeatherDisplay:10.37,2013-03-28 21:39:00,
2013-03-28 14:44:00,61.8,54.2,30.04,WNW,292,6.0,12.0,76,0.00,FEW,,0.00,680.0,WeatherDisplay:10.37,2013-03-28 21:44:00,
2013-03-28 14:49:00,62.0,54.4,30.04,WNW,291,7.0,11.0,76,0.00,CLR,,0.00,563.0,WeatherDisplay:10.37,2013-03-28 21:49:00,
2013-03-28 14:54:00,62.2,54.2,30.04,West,263,6.8,10.4,75,0.00,CLR,,0.00,650.0,WeatherDisplay:10.37,2013-03-28 21:54:00,
2013-03-28 14:59:00,62.3,54.6,30.04,NNW,332,3.2,6.9,76,0.00,CLR,,0.00,759.0,WeatherDisplay:10.37,2013-03-28 21:59:00,
2013-03-28 15:04:00,62.6,54.2,30.04,West,277,6.0,12.0,74,0.00,CLR,,0.00,773.0,WeatherDisplay:10.37,2013-03-28 22:04:00,
2013-03-28 15:09:00,62.7,54.3,30.03,WNW,293,6.5,9.2,74,0.00,CLR,,0.00,795.0,WeatherDisplay:10.37,2013-03-28 22:09:00,
2013-03-28 15:14:00,62.7,54.3,30.03,WNW,289,2.0,10.0,74,0.00,CLR,,0.00,705.0,WeatherDisplay:10.37,2013-03-28 22:14:00,
2013-03-28 15:19:00,62.9,54.5,30.03,NW,317,3.0,6.0,74,0.00,CLR,,0.00,800.0,WeatherDisplay:10.37,2013-03-28 22:19:00,
2013-03-28 15:24:00,63.1,54.7,30.03,WNW,298,5.2,5.2,74,0.00,CLR,,0.00,761.0,WeatherDisplay:10.37,2013-03-28 22:24:00,
2013-03-28 15:29:00,63.2,54.4,30.03,WNW,289,6.0,7.0,73,0.00,CLR,,0.00,334.0,WeatherDisplay:10.37,2013-03-28 22:29:00,
2013-03-28 15:34:00,62.9,54.1,30.03,WNW,287,6.0,10.0,73,0.00,SCT,,0.00,735.0,WeatherDisplay:10.37,2013-03-28 22:34:00,
2013-03-28 15:39:00,62.2,53.8,30.02,WNW,287,2.7,6.9,74,0.00,SCT,,0.00,315.0,WeatherDisplay:10.37,2013-03-28 22:39:00,
2013-03-28 15:44:00,62.4,54.0,30.02,NW,305,2.0,7.0,74,0.00,SCT,,0.00,410.0,WeatherDisplay:10.37,2013-03-28 22:44:00,
2013-03-28 15:49:00,62.8,54.4,30.02,NW,306,5.6,5.6,74,0.00,SCT,,0.00,441.0,WeatherDisplay:10.37,2013-03-28 22:49:00,
2013-03-28 15:54:00,63.0,54.6,30.02,NW,313,2.6,5.8,74,0.00,FEW,,0.00,649.0,WeatherDisplay:10.37,2013-03-28 22:54:00,
2013-03-28 15:59:00,63.6,54.8,30.03,West,273,3.3,5.8,73,0.00,CLR,,0.00,605.0,WeatherDisplay:10.37,2013-03-28 22:59:00,
2013-03-28 16:04:00,63.9,54.3,30.03,West,263,5.5,11.5,71,0.00,CLR,,0.00,577.0,WeatherDisplay:10.37,2013-03-28 23:04:00,
2013-03-28 16:11:00,63.6,54.0,30.03,West,271,4.0,4.0,71,0.00,CLR,,0.00,555.0,WeatherDisplay:10.37,2013-03-28 23:11:00,
2013-03-28 16:16:00,63.5,53.9,30.03,West,269,6.5,11.5,71,0.00,CLR,,0.00,527.0,WeatherDisplay:10.37,2013-03-28 23:16:00,
2013-03-28 16:21:00,63.2,53.6,30.03,WSW,245,4.9,9.2,71,0.00,CLR,,0.00,513.0,WeatherDisplay:10.37,2013-03-28 23:21:00,
2013-03-28 16:26:00,63.0,53.8,30.03,SW,220,7.5,12.7,72,0.00,CLR,,0.00,501.0,WeatherDisplay:10.37,2013-03-28 23:26:00,
2013-03-28 16:31:00,62.9,53.7,30.03,West,267,5.0,10.4,72,0.00,CLR,,0.00,487.0,WeatherDisplay:10.37,2013-03-28 23:31:00,
2013-03-28 16:36:00,63.1,53.9,30.03,WSW,250,8.3,11.5,72,0.00,CLR,,0.00,473.0,WeatherDisplay:10.37,2013-03-28 23:36:00,
2013-03-28 16:41:00,63.0,53.4,30.03,West,266,4.2,9.2,71,0.00,CLR,,0.00,457.0,WeatherDisplay:10.37,2013-03-28 23:41:00,
2013-03-28 16:46:00,62.9,53.7,30.02,West,271,8.0,11.5,72,0.00,CLR,,0.00,443.0,WeatherDisplay:10.37,2013-03-28 23:46:00,
2013-03-28 16:51:00,62.6,53.8,30.02,WSW,243,6.7,11.5,73,0.00,CLR,,0.00,427.0,WeatherDisplay:10.37,2013-03-28 23:51:00,
2013-03-28 16:56:00,62.5,53.7,30.02,WSW,241,8.3,12.7,73,0.00,CLR,,0.00,411.0,WeatherDisplay:10.37,2013-03-28 23:56:00,
2013-03-28 17:01:00,62.6,53.8,30.02,WSW,254,8.8,13.8,73,0.00,CLR,,0.00,394.0,WeatherDisplay:10.37,2013-03-29 00:01:00,
2013-03-28 17:06:00,62.3,53.5,30.03,WSW,252,7.1,7.1,73,0.00,CLR,,0.00,385.0,WeatherDisplay:10.37,2013-03-29 00:06:00,
2013-03-28 17:11:00,62.1,53.3,30.03,West,271,6.3,11.5,73,0.00,CLR,,0.00,362.0,WeatherDisplay:10.37,2013-03-29 00:11:00,
2013-03-28 17:16:00,61.9,53.5,30.03,WSW,246,7.2,12.7,74,0.00,CLR,,0.00,341.0,WeatherDisplay:10.37,2013-03-29 00:16:00,
2013-03-28 17:21:00,61.8,53.4,30.03,WSW,250,9.8,12.7,74,0.00,CLR,,0.00,338.0,WeatherDisplay:10.37,2013-03-29 00:21:00,
2013-03-28 17:26:00,61.7,53.3,30.03,West,271,10.1,13.8,74,0.00,CLR,,0.00,318.0,WeatherDisplay:10.37,2013-03-29 00:26:00,
2013-03-28 17:31:00,61.6,53.6,30.03,West,262,5.6,11.5,75,0.00,CLR,,0.00,302.0,WeatherDisplay:10.37,2013-03-29 00:31:00,
2013-03-28 17:36:00,61.7,53.7,30.02,WSW,250,4.0,8.1,75,0.00,CLR,,0.00,274.0,WeatherDisplay:10.37,2013-03-29 00:36:00,
2013-03-28 17:41:00,61.7,53.7,30.03,WSW,242,6.7,10.4,75,0.00,CLR,,0.00,258.0,WeatherDisplay:10.37,2013-03-29 00:41:00,
2013-03-28 17:46:00,61.8,53.8,30.03,WSW,246,3.9,9.2,75,0.00,CLR,,0.00,262.0,WeatherDisplay:10.37,2013-03-29 00:46:00,
2013-03-28 17:51:00,62.0,53.6,30.02,West,275,3.0,9.2,74,0.00,CLR,,0.00,241.0,WeatherDisplay:10.37,2013-03-29 00:51:00,
2013-03-28 17:56:00,61.6,53.2,30.02,West,268,4.6,10.4,74,0.00,CLR,,0.00,223.0,WeatherDisplay:10.37,2013-03-29 00:56:00,
2013-03-28 18:01:00,61.6,53.2,30.02,SW,228,2.9,5.8,74,0.00,CLR,,0.00,204.0,WeatherDisplay:10.37,2013-03-29 01:01:00,
2013-03-28 18:06:00,61.4,53.0,30.02,West,275,4.3,9.2,74,0.00,CLR,,0.00,186.0,WeatherDisplay:10.37,2013-03-29 01:06:00,
2013-03-28 18:11:00,61.5,53.5,30.02,WSW,254,5.0,11.5,75,0.00,CLR,,0.00,183.0,WeatherDisplay:10.37,2013-03-29 01:11:00,
2013-03-28 18:17:00,61.5,53.1,30.03,WSW,246,6.1,9.2,74,0.00,CLR,,0.00,167.0,WeatherDisplay:10.37,2013-03-29 01:17:00,
2013-03-28 18:22:00,61.3,52.9,30.03,West,264,5.0,9.2,74,0.00,CLR,,0.00,156.0,WeatherDisplay:10.37,2013-03-29 01:22:00,
2013-03-28 18:27:00,61.1,53.1,30.03,West,270,5.7,9.2,75,0.00,CLR,,0.00,123.0,WeatherDisplay:10.37,2013-03-29 01:27:00,
2013-03-28 18:32:00,60.8,52.8,30.03,SW,217,6.6,10.4,75,0.00,CLR,,0.00,125.0,WeatherDisplay:10.37,2013-03-29 01:32:00,
2013-03-28 18:37:00,60.7,53.1,30.03,WSW,253,2.7,5.8,76,0.00,CLR,,0.00,107.0,WeatherDisplay:10.37,2013-03-29 01:37:00,
2013-03-28 18:42:00,60.4,52.8,30.03,WSW,254,5.3,11.5,76,0.00,CLR,,0.00,90.0,WeatherDisplay:10.37,2013-03-29 01:42:00,
2013-03-28 18:47:00,60.0,52.4,30.03,WNW,289,2.6,9.2,76,0.00,CLR,,0.00,74.0,WeatherDisplay:10.37,2013-03-29 01:47:00,
2013-03-28 18:52:00,59.8,52.6,30.03,SW,232,7.4,11.5,77,0.00,CLR,,0.00,62.0,WeatherDisplay:10.37,2013-03-29 01:52:00,
2013-03-28 18:58:00,59.6,52.4,30.03,WNW,285,1.8,9.2,77,0.00,CLR,,0.00,47.0,WeatherDisplay:10.37,2013-03-29 01:58:00,
2013-03-28 19:03:00,59.5,52.3,30.03,SW,228,6.9,11.5,77,0.00,CLR,,0.00,35.0,WeatherDisplay:10.37,2013-03-29 02:03:00,
2013-03-28 19:08:00,59.1,52.2,30.03,SSW,209,6.5,12.0,78,0.00,CLR,,0.00,19.0,WeatherDisplay:10.37,2013-03-29 02:08:00,
2013-03-28 19:13:00,58.7,51.9,30.03,West,271,3.7,10.4,78,0.00,CLR,,0.00,14.0,WeatherDisplay:10.37,2013-03-29 02:13:00,
2013-03-28 19:18:00,58.4,51.9,30.03,WNW,289,5.8,10.4,79,0.00,OVC,,0.00,12.0,WeatherDisplay:10.37,2013-03-29 02:18:00,
2013-03-28 19:23:00,58.1,52.0,30.03,WNW,291,4.6,9.2,80,0.00,OVC,,0.00,9.0,WeatherDisplay:10.37,2013-03-29 02:23:00,
2013-03-28 19:28:00,57.8,51.7,30.04,West,269,5.5,11.5,80,0.00,OVC,,0.00,5.0,WeatherDisplay:10.37,2013-03-29 02:28:00,
2013-03-28 19:33:00,57.6,51.8,30.04,WSW,252,9.5,15.0,81,0.00,OVC,,0.00,0.0,WeatherDisplay:10.37,2013-03-29 02:33:00,
2013-03-28 19:38:00,57.3,51.5,30.04,WNW,295,5.7,5.7,81,0.00,OVC,,0.00,0.0,WeatherDisplay:10.37,2013-03-29 02:38:00,
2013-03-28 19:43:00,57.2,51.8,30.03,SW,235,4.3,10.4,82,0.00,OVC,,0.00,0.0,WeatherDisplay:10.37,2013-03-29 02:43:00,
2013-03-28 19:48:00,57.1,51.7,30.04,West,264,6.1,11.5,82,0.00,OVC,,0.00,0.0,WeatherDisplay:10.37,2013-03-29 02:48:00,
2013-03-28 19:53:00,56.9,51.5,30.04,West,275,5.8,11.5,82,0.00,OVC,,0.00,0.0,WeatherDisplay:10.37,2013-03-29 02:53:00,
2013-03-28 19:58:00,56.9,51.8,30.04,SW,235,4.8,13.8,83,0.00,OVC,,0.00,0.0,WeatherDisplay:10.37,2013-03-29 02:58:00,
2013-03-28 20:03:00,56.7,51.6,30.04,WSW,250,4.8,10.4,83,0.00,OVC,,0.00,0.0,WeatherDisplay:10.37,2013-03-29 03:03:00,
2013-03-28 20:08:00,56.6,51.5,30.04,WNW,286,5.1,11.5,83,0.00,OVC,,0.00,0.0,WeatherDisplay:10.37,2013-03-29 03:08:00,
2013-03-28 20:13:00,56.5,51.7,30.04,WSW,251,4.7,9.2,84,0.00,OVC,,0.00,0.0,WeatherDisplay:10.37,2013-03-29 03:13:00,
2013-03-28 20:18:00,56.5,51.7,30.04,WNW,285,9.7,16.1,84,0.00,OVC,,0.00,0.0,WeatherDisplay:10.37,2013-03-29 03:18:00,
2013-03-28 20:23:00,56.4,51.6,30.04,WSW,256,6.0,10.4,84,0.00,OVC,,0.00,0.0,WeatherDisplay:10.37,2013-03-29 03:23:00,
2013-03-28 20:28:00,56.3,51.5,30.04,SW,227,5.9,9.2,84,0.00,OVC,,0.00,0.0,WeatherDisplay:10.37,2013-03-29 03:28:00,
2013-03-28 20:33:00,56.3,51.5,30.04,SW,231,2.2,10.0,84,0.00,OVC,,0.00,0.0,WeatherDisplay:10.37,2013-03-29 03:33:00,
2013-03-28 20:38:00,56.3,51.8,30.04,SW,227,4.5,12.7,85,0.00,OVC,,0.00,0.0,WeatherDisplay:10.37,2013-03-29 03:38:00,
2013-03-28 20:43:00,56.3,51.8,30.05,WNW,294,5.9,10.4,85,0.00,OVC,,0.00,0.0,WeatherDisplay:10.37,2013-03-29 03:43:00,
2013-03-28 20:48:00,56.2,51.7,30.05,WNW,291,2.2,3.5,85,0.00,OVC,,0.00,0.0,WeatherDisplay:10.37,2013-03-29 03:48:00,
2013-03-28 20:53:00,56.2,51.7,30.05,West,260,4.6,6.9,85,0.00,OVC,,0.00,0.0,WeatherDisplay:10.37,2013-03-29 03:53:00,
2013-03-28 20:58:00,56.1,51.7,30.05,West,267,2.7,4.6,85,0.00,OVC,,0.00,0.0,WeatherDisplay:10.37,2013-03-29 03:58:00,
2013-03-28 21:00:00,56.1,51.7,30.05,WNW,287,5.7,9.2,85,0.00,OVC,,0.00,0.0,WeatherDisplay:10.37,2013-03-29 04:00:00,
2013-03-28 21:05:00,56.0,51.9,30.06,WSW,244,4.4,8.1,86,0.00,OVC,,0.00,0.0,WeatherDisplay:10.37,2013-03-29 04:05:00,
2013-03-28 21:10:00,55.9,51.8,30.06,West,281,0.2,1.2,86,0.00,OVC,,0.00,0.0,WeatherDisplay:10.37,2013-03-29 04:10:00,
2013-03-28 21:15:00,55.8,51.7,30.06,WSW,248,3.4,6.9,86,0.00,OVC,,0.00,0.0,WeatherDisplay:10.37,2013-03-29 04:15:00,
2013-03-28 21:20:00,55.8,51.7,30.06,West,272,5.1,6.9,86,0.00,OVC,,0.00,0.0,WeatherDisplay:10.37,2013-03-29 04:20:00,
2013-03-28 21:25:00,55.8,51.7,30.06,West,269,2.0,3.5,86,0.00,OVC,,0.00,0.0,WeatherDisplay:10.37,2013-03-29 04:25:00,
2013-03-28 21:30:00,55.8,52.0,30.06,SW,229,4.1,4.6,87,0.00,OVC,,0.00,0.0,WeatherDisplay:10.37,2013-03-29 04:30:00,
2013-03-28 21:35:00,55.8,52.0,30.06,SW,231,1.6,3.5,87,0.00,OVC,,0.00,0.0,WeatherDisplay:10.37,2013-03-29 04:35:00,
2013-03-28 21:40:00,55.8,52.0,30.06,SW,232,2.5,4.6,87,0.00,OVC,,0.00,0.0,WeatherDisplay:10.37,2013-03-29 04:40:00,
2013-03-28 21:45:00,55.7,51.9,30.06,SW,233,0.0,1.2,87,0.00,OVC,,0.00,0.0,WeatherDisplay:10.37,2013-03-29 04:45:00,
2013-03-28 21:50:00,55.7,51.9,30.06,NW,323,0.0,0.0,87,0.00,OVC,,0.00,0.0,WeatherDisplay:10.37,2013-03-29 04:50:00,
2013-03-28 21:55:00,55.6,51.8,30.06,North,5,1.8,3.5,87,0.00,OVC,,0.00,0.0,WeatherDisplay:10.37,2013-03-29 04:55:00,
2013-03-28 22:00:00,55.5,51.7,30.07,North,5,0.0,0.0,87,0.00,OVC,,0.00,0.0,WeatherDisplay:10.37,2013-03-29 05:00:00,
2013-03-28 22:05:00,55.4,51.6,30.07,North,5,0.0,0.0,87,0.00,OVC,,0.00,0.0,WeatherDisplay:10.37,2013-03-29 05:05:00,
2013-03-28 22:10:00,55.4,51.6,30.07,North,5,0.0,0.0,87,0.00,OVC,,0.00,0.0,WeatherDisplay:10.37,2013-03-29 05:10:00,
2013-03-28 22:15:00,55.3,51.8,30.07,West,266,0.2,1.2,88,0.00,OVC,,0.00,0.0,WeatherDisplay:10.37,2013-03-29 05:15:00,
2013-03-28 22:20:00,55.2,51.7,30.07,West,271,1.3,3.5,88,0.00,OVC,,0.00,0.0,WeatherDisplay:10.37,2013-03-29 05:20:00,
2013-03-28 22:25:00,55.2,51.7,30.07,West,271,0.1,1.2,88,0.00,OVC,,0.00,0.0,WeatherDisplay:10.37,2013-03-29 05:25:00,
2013-03-28 22:30:00,55.3,52.1,30.07,West,271,0.0,0.0,89,0.00,OVC,,0.00,0.0,WeatherDisplay:10.37,2013-03-29 05:30:00,
2013-03-28 22:35:00,55.4,52.2,30.07,West,271,0.2,1.2,89,0.00,OVC,,0.00,0.0,WeatherDisplay:10.37,2013-03-29 05:35:00,
2013-03-28 22:40:00,55.3,51.8,30.07,West,271,0.0,0.0,88,0.00,OVC,,0.00,0.0,WeatherDisplay:10.37,2013-03-29 05:40:00,
2013-03-28 22:45:00,55.3,51.8,30.07,West,259,3.9,4.6,88,0.00,OVC,,0.00,0.0,WeatherDisplay:10.37,2013-03-29 05:45:00,
2013-03-28 22:50:00,55.1,51.6,30.07,West,259,0.9,3.5,88,0.00,OVC,,0.00,0.0,WeatherDisplay:10.37,2013-03-29 05:50:00,
2013-03-28 22:55:00,55.1,51.6,30.06,West,259,0.2,2.3,88,0.00,OVC,,0.00,0.0,WeatherDisplay:10.37,2013-03-29 05:55:00,
2013-03-28 23:00:00,55.1,51.6,30.06,West,259,0.0,0.0,88,0.00,OVC,,0.00,0.0,WeatherDisplay:10.37,2013-03-29 06:00:00,
2013-03-28 23:05:00,55.1,51.6,30.06,WSW,258,0.0,0.0,88,0.00,OVC,,0.00,0.0,WeatherDisplay:10.37,2013-03-29 06:05:00,
2013-03-28 23:10:00,55.0,51.5,30.06,West,259,0.0,0.0,88,0.00,OVC,,0.00,0.0,WeatherDisplay:10.37,2013-03-29 06:10:00,
2013-03-28 23:15:00,55.0,51.5,30.06,West,259,0.0,0.0,88,0.00,OVC,,0.00,0.0,WeatherDisplay:10.37,2013-03-29 06:15:00,
2013-03-28 23:20:00,55.0,51.5,30.06,West,259,0.0,0.0,88,0.00,OVC,,0.00,0.0,WeatherDisplay:10.37,2013-03-29 06:20:00,
2013-03-28 23:25:00,55.0,51.5,30.06,West,259,0.0,0.0,88,0.00,OVC,,0.00,0.0,WeatherDisplay:10.37,2013-03-29 06:25:00,
2013-03-28 23:30:00,54.9,51.4,30.06,West,259,0.0,0.0,88,0.00,OVC,,0.00,0.0,WeatherDisplay:10.37,2013-03-29 06:30:00,
2013-03-28 23:35:00,54.9,51.4,30.06,West,259,0.0,0.0,88,0.00,OVC,,0.00,0.0,WeatherDisplay:10.37,2013-03-29 06:35:00,
2013-03-28 23:40:00,54.8,51.3,30.06,West,259,0.0,0.0,88,0.00,OVC,,0.00,0.0,WeatherDisplay:10.37,2013-03-29 06:40:00,
2013-03-28 23:45:00,54.7,51.2,30.06,West,259,0.0,0.0,88,0.00,OVC,,0.00,0.0,WeatherDisplay:10.37,2013-03-29 06:45:00,
2013-03-28 23:51:00,54.6,51.4,30.07,West,259,0.0,0.0,89,0.00,OVC,,0.00,0.0,WeatherDisplay:10.37,2013-03-29 06:51:00,
2013-03-28 23:56:00,54.6,51.4,30.07,WSW,258,0.0,0.0,89,0.00,OVC,,0.00,0.0,WeatherDisplay:10.37,2013-03-29 06:56:00,